»·PEaware :: N17MA KLAX-KSNA

N17MA :: KLAX-KSNA

FLIGHT INFORMATION

Flight Status: Arrived
Operator: Privately registered:
United States
More flights under this callsign
Pilot: Diego M. (28112)
Aircraft: CESSNA 172 SKYHAWK
(C172)
More flights by this aircraft type
Origin: KLAX Los Angeles Intl
United States
Destination: KSNA John Wayne-Orange Co
United States
More flights between these airports :: More routes between these airports
Route: SLI8 SLI
File this flight plan on PilotEdge
Remarks: LAXP55
Altitude:
(Current/Filed)
4,000ft
Speed:
(Current/Filed)
120kts
Departed: 16-May-20 05:03 PM
Arrived: 16-May-20 05:42 PM
Distance/Time
Traveled:
31nm/0:39
Distance/Time
To Go:
Arrived

Flight Plot

Page will automatically refresh every two minutes.

Flight plan parsing failed; only flown route is shown


Map Options




Map Legend


Flown Route
Filed Route
Departure Airport
Arrival Airport
Navaid (VOR, NDB)
Fix

Horizontal Profiles

Position Reports

Time Latitude Longitude Heading Altitude Ground
Speed
16-May-20 16:50 33.933540 -118.396960 287 110ft 0kts
16-May-20 16:51 33.933540 -118.396960 287 110ft 0kts
16-May-20 16:52 33.933540 -118.396960 287 110ft 0kts
16-May-20 16:53 33.933540 -118.396960 287 110ft 0kts
16-May-20 16:54 33.933540 -118.396960 287 110ft 0kts
16-May-20 16:55 33.933752 -118.397689 280 111ft 10kts
16-May-20 16:56 33.935105 -118.392761 82 103ft 24kts
16-May-20 16:57 33.935904 -118.384820 83 99ft 29kts
16-May-20 16:58 33.936553 -118.382731 354 98ft 0kts
16-May-20 16:59 33.936553 -118.382731 354 98ft 0kts
16-May-20 17:01 33.936553 -118.382731 354 98ft 0kts
16-May-20 17:02 33.937249 -118.383894 263 98ft 23kts
16-May-20 17:03 33.934956 -118.407265 262 673ft 87kts
16-May-20 17:04 33.932509 -118.435494 263 1397ft 87kts
16-May-20 17:05 33.921293 -118.460030 221 2219ft 90kts
16-May-20 17:06 33.901750 -118.479308 221 3015ft 91kts
16-May-20 17:07 33.878536 -118.489566 181 3772ft 97kts
16-May-20 17:08 33.847989 -118.488217 181 3996ft 126kts
16-May-20 17:09 33.812555 -118.486858 181 3992ft 127kts
16-May-20 17:10 33.793820 -118.458345 92 4000ft 138kts
16-May-20 17:11 33.792421 -118.411909 92 3999ft 139kts
16-May-20 17:12 33.791282 -118.365485 93 3999ft 137kts
16-May-20 17:13 33.790141 -118.318986 93 3999ft 140kts
16-May-20 17:14 33.788972 -118.271979 93 3998ft 139kts
16-May-20 17:15 33.787791 -118.225252 93 3996ft 139kts
16-May-20 17:16 33.786601 -118.178834 94 3994ft 138kts
16-May-20 17:17 33.785396 -118.132513 94 3992ft 137kts
16-May-20 17:18 33.784180 -118.086446 94 3990ft 136kts
16-May-20 17:18 33.783168 -118.048274 94 3990ft 136kts
16-May-20 17:20 33.810760 -118.010727 30 3990ft 141kts
16-May-20 17:20 33.825969 -117.977712 83 3989ft 138kts
16-May-20 17:21 33.832543 -117.932087 71 3988ft 140kts
16-May-20 17:23 33.853100 -117.882803 63 3989ft 141kts
16-May-20 17:23 33.868594 -117.847994 62 3988ft 141kts
16-May-20 17:24 33.887974 -117.806483 60 3983ft 141kts
16-May-20 17:25 33.903262 -117.763129 72 3978ft 141kts
16-May-20 17:26 33.918314 -117.718794 63 3973ft 143kts
16-May-20 17:27 33.951541 -117.693696 25 3973ft 141kts
16-May-20 17:28 33.981185 -117.698376 267 3972ft 126kts
16-May-20 17:29 33.954261 -117.712421 179 3661ft 112kts
16-May-20 17:30 33.924458 -117.709883 196 3470ft 98kts
16-May-20 17:31 33.902795 -117.723690 211 3389ft 77kts
16-May-20 17:32 33.881963 -117.737251 210 3465ft 95kts
16-May-20 17:33 33.858152 -117.752759 210 3363ft 92kts
16-May-20 17:34 33.834838 -117.767854 209 2940ft 96kts
16-May-20 17:35 33.811583 -117.782594 209 2723ft 91kts
16-May-20 17:36 33.788919 -117.796982 209 2193ft 88kts
16-May-20 17:37 33.767205 -117.810777 209 1962ft 95kts
16-May-20 17:38 33.742166 -117.826699 209 1433ft 106kts
16-May-20 17:39 33.715637 -117.843534 208 846ft 108kts
16-May-20 17:40 33.690063 -117.859755 209 280ft 86kts
16-May-20 17:41 33.677984 -117.868099 294 60ft 17kts
16-May-20 17:42 33.678095 -117.868372 288 60ft 0kts
16-May-20 17:43 33.678109 -117.868420 285 60ft 2kts
16-May-20 17:44 33.676094 -117.870076 208 60ft 18kts
16-May-20 17:45 33.675256 -117.871687 222 60ft 0kts
16-May-20 17:46 33.675256 -117.871687 222 60ft 0kts
16-May-20 17:47 33.675256 -117.871687 222 60ft 0kts

Navigation Log

Ident Type
Flight plan parsing failed, navigation log unavailable